sensor_id;sensor_type;location;lat;lon;timestamp;P1;durP1;ratioP1;P2;durP2;ratioP2
10005;SDS011;5042;42.626;23.382;2023-12-28T00:01:41;9.70;;;6.77;;
10005;SDS011;5042;42.626;23.382;2023-12-28T00:04:08;9.00;;;6.50;;
10005;SDS011;5042;42.626;23.382;2023-12-28T00:06:36;7.97;;;6.50;;
10005;SDS011;5042;42.626;23.382;2023-12-28T00:09:03;8.20;;;6.00;;
10005;SDS011;5042;42.626;23.382;2023-12-28T00:11:30;7.73;;;6.27;;
10005;SDS011;5042;42.626;23.382;2023-12-28T00:13:59;9.27;;;6.20;;
10005;SDS011;5042;42.626;23.382;2023-12-28T00:16:26;6.63;;;5.53;;
10005;SDS011;5042;42.626;23.382;2023-12-28T00:18:54;8.43;;;6.60;;
10005;SDS011;5042;42.626;23.382;2023-12-28T00:21:20;6.90;;;6.20;;
10005;SDS011;5042;42.626;23.382;2023-12-28T00:23:49;8.93;;;6.23;;
10005;SDS011;5042;42.626;23.382;2023-12-28T00:26:16;10.20;;;6.57;;
10005;SDS011;5042;42.626;23.382;2023-12-28T00:28:46;6.53;;;5.80;;
10005;SDS011;5042;42.626;23.382;2023-12-28T00:31:13;8.67;;;6.37;;
10005;SDS011;5042;42.626;23.382;2023-12-28T00:33:40;7.70;;;6.10;;
10005;SDS011;5042;42.626;23.382;2023-12-28T00:36:07;8.97;;;6.30;;
10005;SDS011;5042;42.626;23.382;2023-12-28T00:38:34;7.03;;;6.10;;
10005;SDS011;5042;42.626;23.382;2023-12-28T00:41:02;8.57;;;6.33;;
10005;SDS011;5042;42.626;23.382;2023-12-28T00:43:29;8.97;;;6.60;;
10005;SDS011;5042;42.626;23.382;2023-12-28T00:45:56;8.37;;;6.13;;
10005;SDS011;5042;42.626;23.382;2023-12-28T00:48:23;9.40;;;7.10;;
10005;SDS011;5042;42.626;23.382;2023-12-28T00:50:50;9.23;;;7.30;;
10005;SDS011;5042;42.626;23.382;2023-12-28T00:53:17;9.67;;;8.00;;
10005;SDS011;5042;42.626;23.382;2023-12-28T00:55:45;8.90;;;7.23;;
10005;SDS011;5042;42.626;23.382;2023-12-28T00:58:13;9.57;;;7.27;;
10005;SDS011;5042;42.626;23.382;2023-12-28T01:00:40;8.07;;;7.10;;
10005;SDS011;5042;42.626;23.382;2023-12-28T01:03:07;8.60;;;7.00;;
10005;SDS011;5042;42.626;23.382;2023-12-28T01:05:34;8.23;;;5.97;;
10005;SDS011;5042;42.626;23.382;2023-12-28T01:08:01;7.57;;;6.20;;
10005;SDS011;5042;42.626;23.382;2023-12-28T01:10:28;7.00;;;5.53;;
10005;SDS011;5042;42.626;23.382;2023-12-28T01:12:55;7.80;;;5.50;;
10005;SDS011;5042;42.626;23.382;2023-12-28T01:15:23;6.97;;;5.20;;
10005;SDS011;5042;42.626;23.382;2023-12-28T01:17:50;7.63;;;6.10;;
10005;SDS011;5042;42.626;23.382;2023-12-28T01:20:17;6.57;;;5.60;;
10005;SDS011;5042;42.626;23.382;2023-12-28T01:22:43;8.53;;;5.70;;
10005;SDS011;5042;42.626;23.382;2023-12-28T01:25:10;6.80;;;5.70;;
10005;SDS011;5042;42.626;23.382;2023-12-28T01:27:37;8.33;;;5.57;;
10005;SDS011;5042;42.626;23.382;2023-12-28T01:30:05;6.20;;;5.10;;
10005;SDS011;5042;42.626;23.382;2023-12-28T01:32:34;6.00;;;5.07;;
10005;SDS011;5042;42.626;23.382;2023-12-28T01:35:01;5.73;;;4.73;;
10005;SDS011;5042;42.626;23.382;2023-12-28T01:37:28;6.60;;;5.43;;
10005;SDS011;5042;42.626;23.382;2023-12-28T01:39:58;6.77;;;5.33;;
10005;SDS011;5042;42.626;23.382;2023-12-28T01:42:25;7.23;;;5.87;;
10005;SDS011;5042;42.626;23.382;2023-12-28T01:44:55;7.43;;;5.77;;
10005;SDS011;5042;42.626;23.382;2023-12-28T01:47:22;6.97;;;6.17;;
10005;SDS011;5042;42.626;23.382;2023-12-28T01:49:50;6.40;;;5.80;;
10005;SDS011;5042;42.626;23.382;2023-12-28T01:52:18;7.97;;;5.93;;
10005;SDS011;5042;42.626;23.382;2023-12-28T01:54:45;6.80;;;6.10;;
10005;SDS011;5042;42.626;23.382;2023-12-28T01:57:12;6.70;;;6.00;;
10005;SDS011;5042;42.626;23.382;2023-12-28T01:59:40;9.10;;;6.07;;
10005;SDS011;5042;42.626;23.382;2023-12-28T02:02:08;8.13;;;5.67;;
10005;SDS011;5042;42.626;23.382;2023-12-28T02:04:35;8.53;;;6.13;;
10005;SDS011;5042;42.626;23.382;2023-12-28T02:07:03;7.93;;;5.73;;
10005;SDS011;5042;42.626;23.382;2023-12-28T02:09:31;8.10;;;5.90;;
10005;SDS011;5042;42.626;23.382;2023-12-28T02:11:58;5.73;;;5.13;;
10005;SDS011;5042;42.626;23.382;2023-12-28T02:14:25;6.77;;;5.30;;
10005;SDS011;5042;42.626;23.382;2023-12-28T02:16:54;6.73;;;5.83;;
10005;SDS011;5042;42.626;23.382;2023-12-28T02:19:31;7.30;;;5.13;;
10005;SDS011;5042;42.626;23.382;2023-12-28T02:22:06;6.83;;;5.30;;
10005;SDS011;5042;42.626;23.382;2023-12-28T02:27:21;6.47;;;5.50;;
10005;SDS011;5042;42.626;23.382;2023-12-28T02:29:48;7.63;;;6.43;;
10005;SDS011;5042;42.626;23.382;2023-12-28T02:32:15;8.07;;;6.93;;
10005;SDS011;5042;42.626;23.382;2023-12-28T02:34:48;9.87;;;6.87;;
10005;SDS011;5042;42.626;23.382;2023-12-28T02:37:22;9.27;;;7.10;;
10005;SDS011;5042;42.626;23.382;2023-12-28T02:39:50;8.57;;;6.53;;
10005;SDS011;5042;42.626;23.382;2023-12-28T02:42:21;8.83;;;6.97;;
10005;SDS011;5042;42.626;23.382;2023-12-28T02:44:48;10.30;;;6.70;;
10005;SDS011;5042;42.626;23.382;2023-12-28T02:47:16;8.10;;;6.83;;
10005;SDS011;5042;42.626;23.382;2023-12-28T02:49:43;9.67;;;7.03;;
10005;SDS011;5042;42.626;23.382;2023-12-28T02:52:10;10.93;;;7.63;;
10005;SDS011;5042;42.626;23.382;2023-12-28T02:54:37;10.30;;;7.50;;
10005;SDS011;5042;42.626;23.382;2023-12-28T02:57:04;10.17;;;7.57;;
10005;SDS011;5042;42.626;23.382;2023-12-28T02:59:32;10.97;;;7.37;;
10005;SDS011;5042;42.626;23.382;2023-12-28T03:01:59;9.13;;;6.70;;
10005;SDS011;5042;42.626;23.382;2023-12-28T03:04:26;9.20;;;7.40;;
10005;SDS011;5042;42.626;23.382;2023-12-28T03:06:53;8.10;;;6.90;;
10005;SDS011;5042;42.626;23.382;2023-12-28T03:09:20;9.23;;;7.33;;
10005;SDS011;5042;42.626;23.382;2023-12-28T03:11:47;9.80;;;7.10;;
10005;SDS011;5042;42.626;23.382;2023-12-28T03:14:13;10.80;;;7.37;;
10005;SDS011;5042;42.626;23.382;2023-12-28T03:16:42;9.90;;;7.47;;
10005;SDS011;5042;42.626;23.382;2023-12-28T03:19:09;8.33;;;7.27;;
10005;SDS011;5042;42.626;23.382;2023-12-28T03:21:38;8.63;;;7.00;;
10005;SDS011;5042;42.626;23.382;2023-12-28T03:24:05;8.37;;;7.33;;
10005;SDS011;5042;42.626;23.382;2023-12-28T03:26:32;9.37;;;7.40;;
10005;SDS011;5042;42.626;23.382;2023-12-28T03:29:01;9.67;;;7.20;;
10005;SDS011;5042;42.626;23.382;2023-12-28T03:31:28;9.77;;;7.30;;
10005;SDS011;5042;42.626;23.382;2023-12-28T03:33:56;8.97;;;7.37;;
10005;SDS011;5042;42.626;23.382;2023-12-28T03:36:23;12.53;;;7.50;;
10005;SDS011;5042;42.626;23.382;2023-12-28T03:38:50;9.40;;;7.30;;
10005;SDS011;5042;42.626;23.382;2023-12-28T03:41:17;10.00;;;7.33;;
10005;SDS011;5042;42.626;23.382;2023-12-28T03:43:44;11.00;;;7.63;;
10005;SDS011;5042;42.626;23.382;2023-12-28T03:46:11;8.50;;;6.90;;
10005;SDS011;5042;42.626;23.382;2023-12-28T03:48:38;7.43;;;6.40;;
10005;SDS011;5042;42.626;23.382;2023-12-28T03:51:06;7.30;;;6.50;;
10005;SDS011;5042;42.626;23.382;2023-12-28T03:53:33;9.30;;;6.60;;
10005;SDS011;5042;42.626;23.382;2023-12-28T03:56:01;8.50;;;6.20;;
10005;SDS011;5042;42.626;23.382;2023-12-28T03:58:28;9.93;;;6.73;;
10005;SDS011;5042;42.626;23.382;2023-12-28T04:00:55;7.90;;;6.47;;
10005;SDS011;5042;42.626;23.382;2023-12-28T04:03:22;8.83;;;6.80;;
10005;SDS011;5042;42.626;23.382;2023-12-28T04:05:48;8.73;;;6.63;;
10005;SDS011;5042;42.626;23.382;2023-12-28T04:08:18;9.57;;;6.73;;
10005;SDS011;5042;42.626;23.382;2023-12-28T04:10:45;8.77;;;6.63;;
10005;SDS011;5042;42.626;23.382;2023-12-28T04:13:12;8.00;;;7.00;;
10005;SDS011;5042;42.626;23.382;2023-12-28T04:15:41;8.03;;;6.90;;
10005;SDS011;5042;42.626;23.382;2023-12-28T04:18:08;7.97;;;6.80;;
10005;SDS011;5042;42.626;23.382;2023-12-28T04:20:35;7.60;;;6.80;;
10005;SDS011;5042;42.626;23.382;2023-12-28T04:23:02;7.07;;;6.40;;
10005;SDS011;5042;42.626;23.382;2023-12-28T04:25:30;7.47;;;6.53;;
10005;SDS011;5042;42.626;23.382;2023-12-28T04:27:57;8.63;;;6.80;;
10005;SDS011;5042;42.626;23.382;2023-12-28T04:30:24;8.80;;;6.47;;
10005;SDS011;5042;42.626;23.382;2023-12-28T04:32:52;7.27;;;5.97;;
10005;SDS011;5042;42.626;23.382;2023-12-28T04:35:19;8.60;;;6.53;;
10005;SDS011;5042;42.626;23.382;2023-12-28T04:37:46;7.43;;;6.60;;
10005;SDS011;5042;42.626;23.382;2023-12-28T04:40:13;7.97;;;6.77;;
10005;SDS011;5042;42.626;23.382;2023-12-28T04:42:42;6.87;;;6.17;;
10005;SDS011;5042;42.626;23.382;2023-12-28T04:45:08;7.80;;;6.43;;
10005;SDS011;5042;42.626;23.382;2023-12-28T04:47:36;6.97;;;5.50;;
10005;SDS011;5042;42.626;23.382;2023-12-28T04:50:03;6.50;;;5.30;;
10005;SDS011;5042;42.626;23.382;2023-12-28T04:52:31;6.33;;;4.97;;
10005;SDS011;5042;42.626;23.382;2023-12-28T04:54:58;7.63;;;5.10;;
10005;SDS011;5042;42.626;23.382;2023-12-28T04:57:25;6.20;;;5.07;;
10005;SDS011;5042;42.626;23.382;2023-12-28T04:59:54;5.87;;;5.00;;
10005;SDS011;5042;42.626;23.382;2023-12-28T05:02:21;6.63;;;5.03;;
10005;SDS011;5042;42.626;23.382;2023-12-28T05:04:48;7.17;;;5.80;;
10005;SDS011;5042;42.626;23.382;2023-12-28T05:07:15;8.47;;;5.57;;
10005;SDS011;5042;42.626;23.382;2023-12-28T05:09:42;6.03;;;5.10;;
10005;SDS011;5042;42.626;23.382;2023-12-28T05:12:09;7.47;;;5.30;;
10005;SDS011;5042;42.626;23.382;2023-12-28T05:14:36;7.10;;;5.13;;
10005;SDS011;5042;42.626;23.382;2023-12-28T05:17:04;6.60;;;5.03;;
10005;SDS011;5042;42.626;23.382;2023-12-28T05:19:31;7.37;;;4.90;;
10005;SDS011;5042;42.626;23.382;2023-12-28T05:21:58;6.63;;;4.87;;
10005;SDS011;5042;42.626;23.382;2023-12-28T05:24:29;6.27;;;5.30;;
10005;SDS011;5042;42.626;23.382;2023-12-28T05:26:56;7.73;;;5.60;;
10005;SDS011;5042;42.626;23.382;2023-12-28T05:29:22;7.13;;;5.67;;
10005;SDS011;5042;42.626;23.382;2023-12-28T05:31:49;7.47;;;5.83;;
10005;SDS011;5042;42.626;23.382;2023-12-28T05:34:18;5.90;;;5.13;;
10005;SDS011;5042;42.626;23.382;2023-12-28T05:36:45;8.07;;;5.93;;
10005;SDS011;5042;42.626;23.382;2023-12-28T05:39:11;7.73;;;5.77;;
10005;SDS011;5042;42.626;23.382;2023-12-28T05:41:39;8.50;;;6.50;;
10005;SDS011;5042;42.626;23.382;2023-12-28T05:44:06;8.73;;;6.20;;
10005;SDS011;5042;42.626;23.382;2023-12-28T05:46:33;8.57;;;6.17;;
10005;SDS011;5042;42.626;23.382;2023-12-28T05:49:00;6.77;;;5.73;;
10005;SDS011;5042;42.626;23.382;2023-12-28T05:51:28;8.23;;;6.57;;
10005;SDS011;5042;42.626;23.382;2023-12-28T05:53:55;9.57;;;6.40;;
10005;SDS011;5042;42.626;23.382;2023-12-28T05:56:22;8.23;;;6.73;;
10005;SDS011;5042;42.626;23.382;2023-12-28T05:58:49;10.07;;;7.00;;
10005;SDS011;5042;42.626;23.382;2023-12-28T06:01:16;9.03;;;6.93;;
10005;SDS011;5042;42.626;23.382;2023-12-28T06:03:43;7.77;;;6.10;;
10005;SDS011;5042;42.626;23.382;2023-12-28T06:06:10;10.57;;;7.10;;
10005;SDS011;5042;42.626;23.382;2023-12-28T06:08:38;9.40;;;6.77;;
10005;SDS011;5042;42.626;23.382;2023-12-28T06:11:05;9.07;;;6.77;;
10005;SDS011;5042;42.626;23.382;2023-12-28T06:13:32;8.50;;;7.37;;
10005;SDS011;5042;42.626;23.382;2023-12-28T06:15:59;8.90;;;6.67;;
10005;SDS011;5042;42.626;23.382;2023-12-28T06:18:26;7.77;;;6.77;;
10005;SDS011;5042;42.626;23.382;2023-12-28T06:20:53;9.03;;;6.43;;
10005;SDS011;5042;42.626;23.382;2023-12-28T06:23:20;7.00;;;5.73;;
10005;SDS011;5042;42.626;23.382;2023-12-28T06:25:48;7.30;;;5.77;;
10005;SDS011;5042;42.626;23.382;2023-12-28T06:28:15;7.43;;;6.13;;
10005;SDS011;5042;42.626;23.382;2023-12-28T06:30:42;7.60;;;6.80;;
10005;SDS011;5042;42.626;23.382;2023-12-28T06:33:09;10.33;;;7.30;;
10005;SDS011;5042;42.626;23.382;2023-12-28T06:35:36;11.90;;;7.47;;
10005;SDS011;5042;42.626;23.382;2023-12-28T06:38:03;12.27;;;7.17;;
10005;SDS011;5042;42.626;23.382;2023-12-28T06:40:30;11.30;;;7.50;;
10005;SDS011;5042;42.626;23.382;2023-12-28T06:42:58;9.07;;;6.97;;
10005;SDS011;5042;42.626;23.382;2023-12-28T06:45:26;8.97;;;7.00;;
10005;SDS011;5042;42.626;23.382;2023-12-28T06:47:53;8.80;;;7.07;;
10005;SDS011;5042;42.626;23.382;2023-12-28T06:50:20;9.23;;;7.77;;
10005;SDS011;5042;42.626;23.382;2023-12-28T06:52:47;9.77;;;7.53;;
10005;SDS011;5042;42.626;23.382;2023-12-28T06:55:13;10.33;;;8.10;;
10005;SDS011;5042;42.626;23.382;2023-12-28T06:57:40;8.97;;;7.53;;
10005;SDS011;5042;42.626;23.382;2023-12-28T07:00:09;11.33;;;8.27;;
10005;SDS011;5042;42.626;23.382;2023-12-28T07:02:37;12.23;;;8.93;;
10005;SDS011;5042;42.626;23.382;2023-12-28T07:05:04;10.40;;;7.90;;
10005;SDS011;5042;42.626;23.382;2023-12-28T07:07:32;11.83;;;8.20;;
10005;SDS011;5042;42.626;23.382;2023-12-28T07:09:58;10.37;;;7.20;;
10005;SDS011;5042;42.626;23.382;2023-12-28T07:12:25;11.00;;;8.70;;
10005;SDS011;5042;42.626;23.382;2023-12-28T07:14:52;14.30;;;9.37;;
10005;SDS011;5042;42.626;23.382;2023-12-28T07:17:20;12.93;;;9.83;;
10005;SDS011;5042;42.626;23.382;2023-12-28T07:19:47;13.43;;;9.17;;
10005;SDS011;5042;42.626;23.382;2023-12-28T07:22:13;12.20;;;9.60;;
10005;SDS011;5042;42.626;23.382;2023-12-28T07:24:40;12.27;;;9.43;;
10005;SDS011;5042;42.626;23.382;2023-12-28T07:27:07;10.50;;;9.00;;
10005;SDS011;5042;42.626;23.382;2023-12-28T07:29:34;12.33;;;8.60;;
10005;SDS011;5042;42.626;23.382;2023-12-28T07:32:01;10.30;;;8.80;;
10005;SDS011;5042;42.626;23.382;2023-12-28T07:34:30;11.27;;;9.00;;
10005;SDS011;5042;42.626;23.382;2023-12-28T07:36:58;11.57;;;8.97;;
10005;SDS011;5042;42.626;23.382;2023-12-28T07:39:25;11.00;;;8.23;;
10005;SDS011;5042;42.626;23.382;2023-12-28T07:41:51;9.17;;;7.50;;
10005;SDS011;5042;42.626;23.382;2023-12-28T07:44:18;8.57;;;7.67;;
10005;SDS011;5042;42.626;23.382;2023-12-28T07:46:45;9.00;;;6.60;;
10005;SDS011;5042;42.626;23.382;2023-12-28T07:49:12;7.17;;;6.47;;
10005;SDS011;5042;42.626;23.382;2023-12-28T07:51:40;10.53;;;6.43;;
10005;SDS011;5042;42.626;23.382;2023-12-28T07:54:07;8.47;;;6.80;;
10005;SDS011;5042;42.626;23.382;2023-12-28T07:56:34;11.40;;;8.47;;
10005;SDS011;5042;42.626;23.382;2023-12-28T07:59:01;11.80;;;8.30;;
10005;SDS011;5042;42.626;23.382;2023-12-28T08:01:28;11.97;;;8.80;;
10005;SDS011;5042;42.626;23.382;2023-12-28T08:03:58;10.53;;;7.37;;
10005;SDS011;5042;42.626;23.382;2023-12-28T08:06:25;9.43;;;6.90;;
10005;SDS011;5042;42.626;23.382;2023-12-28T08:08:54;12.00;;;7.27;;
10005;SDS011;5042;42.626;23.382;2023-12-28T08:11:21;9.23;;;6.80;;
10005;SDS011;5042;42.626;23.382;2023-12-28T08:13:47;12.90;;;10.80;;
10005;SDS011;5042;42.626;23.382;2023-12-28T08:16:14;15.10;;;10.50;;
10005;SDS011;5042;42.626;23.382;2023-12-28T08:18:41;13.40;;;10.13;;
10005;SDS011;5042;42.626;23.382;2023-12-28T08:21:08;13.47;;;10.30;;
10005;SDS011;5042;42.626;23.382;2023-12-28T08:23:35;14.43;;;11.10;;
10005;SDS011;5042;42.626;23.382;2023-12-28T08:26:03;18.20;;;12.43;;
10005;SDS011;5042;42.626;23.382;2023-12-28T08:28:32;16.43;;;13.03;;
10005;SDS011;5042;42.626;23.382;2023-12-28T08:30:59;17.43;;;11.77;;
10005;SDS011;5042;42.626;23.382;2023-12-28T08:33:26;18.47;;;13.57;;
10005;SDS011;5042;42.626;23.382;2023-12-28T08:35:53;15.07;;;10.97;;
10005;SDS011;5042;42.626;23.382;2023-12-28T08:38:20;19.97;;;14.80;;
10005;SDS011;5042;42.626;23.382;2023-12-28T08:40:47;20.27;;;15.30;;
10005;SDS011;5042;42.626;23.382;2023-12-28T08:43:15;16.50;;;13.77;;
10005;SDS011;5042;42.626;23.382;2023-12-28T08:45:42;19.70;;;14.43;;
10005;SDS011;5042;42.626;23.382;2023-12-28T08:48:09;18.63;;;13.93;;
10005;SDS011;5042;42.626;23.382;2023-12-28T08:50:36;18.67;;;14.47;;
10005;SDS011;5042;42.626;23.382;2023-12-28T08:53:03;22.20;;;15.93;;
10005;SDS011;5042;42.626;23.382;2023-12-28T08:55:30;20.73;;;15.33;;
10005;SDS011;5042;42.626;23.382;2023-12-28T08:57:56;22.33;;;15.90;;
10005;SDS011;5042;42.626;23.382;2023-12-28T09:00:25;20.00;;;15.93;;
10005;SDS011;5042;42.626;23.382;2023-12-28T09:02:53;17.37;;;14.27;;
10005;SDS011;5042;42.626;23.382;2023-12-28T09:05:20;20.17;;;15.13;;
10005;SDS011;5042;42.626;23.382;2023-12-28T09:07:47;19.10;;;14.47;;
10005;SDS011;5042;42.626;23.382;2023-12-28T09:10:13;17.53;;;14.33;;
10005;SDS011;5042;42.626;23.382;2023-12-28T09:12:40;17.47;;;15.03;;
10005;SDS011;5042;42.626;23.382;2023-12-28T09:15:08;20.73;;;14.57;;
10005;SDS011;5042;42.626;23.382;2023-12-28T09:17:37;18.57;;;15.20;;
10005;SDS011;5042;42.626;23.382;2023-12-28T09:20:04;17.60;;;15.17;;
10005;SDS011;5042;42.626;23.382;2023-12-28T09:22:32;20.63;;;16.27;;
10005;SDS011;5042;42.626;23.382;2023-12-28T09:24:59;22.73;;;17.43;;
10005;SDS011;5042;42.626;23.382;2023-12-28T09:27:26;21.97;;;17.33;;
10005;SDS011;5042;42.626;23.382;2023-12-28T09:29:53;21.90;;;17.87;;
10005;SDS011;5042;42.626;23.382;2023-12-28T09:32:19;21.23;;;17.27;;
10005;SDS011;5042;42.626;23.382;2023-12-28T09:34:48;22.03;;;17.57;;
10005;SDS011;5042;42.626;23.382;2023-12-28T09:37:15;25.13;;;19.00;;
10005;SDS011;5042;42.626;23.382;2023-12-28T09:39:41;25.87;;;19.33;;
10005;SDS011;5042;42.626;23.382;2023-12-28T09:42:12;25.57;;;18.87;;
10005;SDS011;5042;42.626;23.382;2023-12-28T09:44:43;24.90;;;18.67;;
10005;SDS011;5042;42.626;23.382;2023-12-28T09:47:10;26.10;;;20.17;;
10005;SDS011;5042;42.626;23.382;2023-12-28T09:49:40;24.97;;;19.03;;
10005;SDS011;5042;42.626;23.382;2023-12-28T09:52:09;25.00;;;18.90;;
10005;SDS011;5042;42.626;23.382;2023-12-28T09:54:36;24.87;;;19.87;;
10005;SDS011;5042;42.626;23.382;2023-12-28T09:57:03;25.13;;;19.50;;
10005;SDS011;5042;42.626;23.382;2023-12-28T09:59:31;26.83;;;19.43;;
10005;SDS011;5042;42.626;23.382;2023-12-28T10:01:59;24.00;;;20.23;;
10005;SDS011;5042;42.626;23.382;2023-12-28T10:04:28;29.83;;;22.13;;
10005;SDS011;5042;42.626;23.382;2023-12-28T10:06:55;25.13;;;19.90;;
10005;SDS011;5042;42.626;23.382;2023-12-28T10:09:24;28.50;;;20.80;;
10005;SDS011;5042;42.626;23.382;2023-12-28T10:11:52;29.83;;;21.50;;
10005;SDS011;5042;42.626;23.382;2023-12-28T10:14:20;28.40;;;21.50;;
10005;SDS011;5042;42.626;23.382;2023-12-28T10:16:47;27.23;;;20.63;;
10005;SDS011;5042;42.626;23.382;2023-12-28T10:19:14;29.50;;;22.10;;
10005;SDS011;5042;42.626;23.382;2023-12-28T10:21:41;32.27;;;21.67;;
10005;SDS011;5042;42.626;23.382;2023-12-28T10:24:09;27.97;;;20.83;;
10005;SDS011;5042;42.626;23.382;2023-12-28T10:26:38;26.03;;;20.30;;
10005;SDS011;5042;42.626;23.382;2023-12-28T10:29:05;28.10;;;21.83;;
10005;SDS011;5042;42.626;23.382;2023-12-28T10:31:32;29.77;;;21.37;;
10005;SDS011;5042;42.626;23.382;2023-12-28T10:34:00;27.07;;;20.70;;
10005;SDS011;5042;42.626;23.382;2023-12-28T10:36:27;27.80;;;21.17;;
10005;SDS011;5042;42.626;23.382;2023-12-28T10:38:54;25.00;;;19.03;;
10005;SDS011;5042;42.626;23.382;2023-12-28T10:41:26;24.30;;;20.20;;
10005;SDS011;5042;42.626;23.382;2023-12-28T10:44:00;24.53;;;18.90;;
10005;SDS011;5042;42.626;23.382;2023-12-28T10:46:30;25.47;;;19.60;;
10005;SDS011;5042;42.626;23.382;2023-12-28T10:48:59;25.03;;;19.33;;
10005;SDS011;5042;42.626;23.382;2023-12-28T10:51:32;26.10;;;19.70;;
10005;SDS011;5042;42.626;23.382;2023-12-28T10:54:05;23.03;;;18.80;;
10005;SDS011;5042;42.626;23.382;2023-12-28T10:56:44;23.83;;;18.47;;
10005;SDS011;5042;42.626;23.382;2023-12-28T10:59:17;30.60;;;20.40;;
10005;SDS011;5042;42.626;23.382;2023-12-28T11:01:51;22.40;;;18.73;;
10005;SDS011;5042;42.626;23.382;2023-12-28T11:04:22;25.43;;;18.40;;
10005;SDS011;5042;42.626;23.382;2023-12-28T11:06:53;27.53;;;21.40;;
10005;SDS011;5042;42.626;23.382;2023-12-28T11:09:22;24.70;;;18.73;;
10005;SDS011;5042;42.626;23.382;2023-12-28T11:11:52;26.70;;;21.07;;
10005;SDS011;5042;42.626;23.382;2023-12-28T11:14:25;29.10;;;21.83;;
10005;SDS011;5042;42.626;23.382;2023-12-28T11:16:53;26.80;;;21.50;;
10005;SDS011;5042;42.626;23.382;2023-12-28T11:19:20;28.43;;;20.77;;
10005;SDS011;5042;42.626;23.382;2023-12-28T11:21:48;27.17;;;20.57;;
10005;SDS011;5042;42.626;23.382;2023-12-28T11:24:16;28.33;;;21.37;;
10005;SDS011;5042;42.626;23.382;2023-12-28T11:26:43;29.20;;;21.40;;
10005;SDS011;5042;42.626;23.382;2023-12-28T11:29:10;29.37;;;21.07;;
10005;SDS011;5042;42.626;23.382;2023-12-28T11:31:40;28.37;;;22.07;;
10005;SDS011;5042;42.626;23.382;2023-12-28T11:34:06;31.87;;;21.50;;
10005;SDS011;5042;42.626;23.382;2023-12-28T11:36:35;26.90;;;20.93;;
10005;SDS011;5042;42.626;23.382;2023-12-28T11:39:07;30.97;;;21.80;;
10005;SDS011;5042;42.626;23.382;2023-12-28T11:41:35;28.70;;;21.87;;
10005;SDS011;5042;42.626;23.382;2023-12-28T11:44:02;30.30;;;21.30;;
10005;SDS011;5042;42.626;23.382;2023-12-28T11:46:31;27.77;;;21.13;;
10005;SDS011;5042;42.626;23.382;2023-12-28T11:49:06;25.63;;;20.47;;
10005;SDS011;5042;42.626;23.382;2023-12-28T11:51:33;29.00;;;22.30;;
10005;SDS011;5042;42.626;23.382;2023-12-28T11:54:02;26.77;;;20.83;;
10005;SDS011;5042;42.626;23.382;2023-12-28T11:56:30;28.40;;;21.07;;
10005;SDS011;5042;42.626;23.382;2023-12-28T11:58:58;26.03;;;21.40;;
10005;SDS011;5042;42.626;23.382;2023-12-28T12:01:24;26.73;;;20.20;;
10005;SDS011;5042;42.626;23.382;2023-12-28T12:03:51;26.03;;;19.40;;
10005;SDS011;5042;42.626;23.382;2023-12-28T12:06:21;24.37;;;20.00;;
10005;SDS011;5042;42.626;23.382;2023-12-28T12:08:49;28.33;;;20.50;;
10005;SDS011;5042;42.626;23.382;2023-12-28T12:11:16;25.03;;;20.20;;
10005;SDS011;5042;42.626;23.382;2023-12-28T12:13:44;26.50;;;20.53;;
10005;SDS011;5042;42.626;23.382;2023-12-28T12:16:13;25.77;;;19.60;;
10005;SDS011;5042;42.626;23.382;2023-12-28T12:18:40;26.13;;;19.23;;
10005;SDS011;5042;42.626;23.382;2023-12-28T12:21:07;27.27;;;19.40;;
10005;SDS011;5042;42.626;23.382;2023-12-28T12:23:36;28.10;;;19.40;;
10005;SDS011;5042;42.626;23.382;2023-12-28T12:26:04;24.67;;;18.53;;
10005;SDS011;5042;42.626;23.382;2023-12-28T12:28:32;22.60;;;17.70;;
10005;SDS011;5042;42.626;23.382;2023-12-28T12:30:59;23.90;;;17.73;;
10005;SDS011;5042;42.626;23.382;2023-12-28T12:33:28;23.93;;;17.40;;
10005;SDS011;5042;42.626;23.382;2023-12-28T12:35:55;25.93;;;17.50;;
10005;SDS011;5042;42.626;23.382;2023-12-28T12:38:22;22.63;;;17.20;;
10005;SDS011;5042;42.626;23.382;2023-12-28T12:40:51;22.57;;;18.13;;
10005;SDS011;5042;42.626;23.382;2023-12-28T12:43:18;25.83;;;18.30;;
10005;SDS011;5042;42.626;23.382;2023-12-28T12:45:45;25.93;;;18.20;;
10005;SDS011;5042;42.626;23.382;2023-12-28T12:48:13;23.73;;;18.63;;
10005;SDS011;5042;42.626;23.382;2023-12-28T12:50:39;24.17;;;18.40;;
10005;SDS011;5042;42.626;23.382;2023-12-28T12:53:06;24.47;;;19.33;;
10005;SDS011;5042;42.626;23.382;2023-12-28T12:55:35;24.93;;;20.00;;
10005;SDS011;5042;42.626;23.382;2023-12-28T12:58:08;28.37;;;19.87;;
10005;SDS011;5042;42.626;23.382;2023-12-28T13:00:37;28.07;;;21.40;;
10005;SDS011;5042;42.626;23.382;2023-12-28T13:03:07;29.13;;;20.33;;
10005;SDS011;5042;42.626;23.382;2023-12-28T13:05:35;32.50;;;19.17;;
10005;SDS011;5042;42.626;23.382;2023-12-28T13:08:02;29.20;;;19.37;;
10005;SDS011;5042;42.626;23.382;2023-12-28T13:10:29;27.50;;;19.67;;
10005;SDS011;5042;42.626;23.382;2023-12-28T13:12:57;26.80;;;20.13;;
10005;SDS011;5042;42.626;23.382;2023-12-28T13:15:26;24.50;;;19.13;;
10005;SDS011;5042;42.626;23.382;2023-12-28T13:17:53;26.87;;;19.60;;
10005;SDS011;5042;42.626;23.382;2023-12-28T13:20:20;31.17;;;20.53;;
10005;SDS011;5042;42.626;23.382;2023-12-28T13:22:47;29.53;;;20.37;;
10005;SDS011;5042;42.626;23.382;2023-12-28T13:25:14;26.00;;;21.00;;
10005;SDS011;5042;42.626;23.382;2023-12-28T13:27:41;27.43;;;20.20;;
10005;SDS011;5042;42.626;23.382;2023-12-28T13:30:09;25.30;;;18.97;;
10005;SDS011;5042;42.626;23.382;2023-12-28T13:32:38;24.97;;;17.90;;
10005;SDS011;5042;42.626;23.382;2023-12-28T13:35:05;26.27;;;19.80;;
10005;SDS011;5042;42.626;23.382;2023-12-28T13:37:33;26.20;;;19.73;;
10005;SDS011;5042;42.626;23.382;2023-12-28T13:39:59;26.23;;;18.60;;
10005;SDS011;5042;42.626;23.382;2023-12-28T13:42:26;26.57;;;18.27;;
10005;SDS011;5042;42.626;23.382;2023-12-28T13:44:53;26.77;;;20.50;;
10005;SDS011;5042;42.626;23.382;2023-12-28T13:47:20;25.53;;;19.00;;
10005;SDS011;5042;42.626;23.382;2023-12-28T13:49:49;26.53;;;18.97;;
10005;SDS011;5042;42.626;23.382;2023-12-28T13:52:15;28.87;;;19.80;;
10005;SDS011;5042;42.626;23.382;2023-12-28T13:54:42;29.33;;;18.20;;
10005;SDS011;5042;42.626;23.382;2023-12-28T13:57:09;25.67;;;19.00;;
10005;SDS011;5042;42.626;23.382;2023-12-28T13:59:36;29.17;;;18.33;;
10005;SDS011;5042;42.626;23.382;2023-12-28T14:02:03;37.30;;;20.53;;
10005;SDS011;5042;42.626;23.382;2023-12-28T14:04:30;29.03;;;19.53;;
10005;SDS011;5042;42.626;23.382;2023-12-28T14:06:59;29.40;;;19.13;;
10005;SDS011;5042;42.626;23.382;2023-12-28T14:09:26;34.77;;;19.20;;
10005;SDS011;5042;42.626;23.382;2023-12-28T14:11:53;28.53;;;19.27;;
10005;SDS011;5042;42.626;23.382;2023-12-28T14:14:20;30.67;;;20.37;;
10005;SDS011;5042;42.626;23.382;2023-12-28T14:16:46;43.60;;;22.83;;
10005;SDS011;5042;42.626;23.382;2023-12-28T14:19:13;52.73;;;25.00;;
10005;SDS011;5042;42.626;23.382;2023-12-28T14:21:40;59.80;;;24.13;;
10005;SDS011;5042;42.626;23.382;2023-12-28T14:24:10;114.97;;;31.57;;
10005;SDS011;5042;42.626;23.382;2023-12-28T14:26:40;61.30;;;25.80;;
10005;SDS011;5042;42.626;23.382;2023-12-28T14:29:08;49.90;;;23.33;;
10005;SDS011;5042;42.626;23.382;2023-12-28T14:31:41;37.13;;;21.57;;
10005;SDS011;5042;42.626;23.382;2023-12-28T14:34:09;33.70;;;19.13;;
10005;SDS011;5042;42.626;23.382;2023-12-28T14:36:36;29.60;;;16.17;;
10005;SDS011;5042;42.626;23.382;2023-12-28T14:39:04;41.60;;;19.33;;